sensor_id;sensor_type;location;lat;lon;timestamp;temperature;humidity
5415;DHT22;2730;51.512;7.504;2024-01-07T00:01:50;2.10;1.00
5415;DHT22;2730;51.512;7.504;2024-01-07T00:04:21;2.10;1.00
5415;DHT22;2730;51.512;7.504;2024-01-07T00:06:48;2.20;1.00
5415;DHT22;2730;51.512;7.504;2024-01-07T00:09:16;2.20;1.00
5415;DHT22;2730;51.512;7.504;2024-01-07T00:11:44;2.10;1.00
5415;DHT22;2730;51.512;7.504;2024-01-07T00:14:12;2.20;1.00
5415;DHT22;2730;51.512;7.504;2024-01-07T00:16:40;2.10;1.00
5415;DHT22;2730;51.512;7.504;2024-01-07T00:19:06;2.00;1.00
5415;DHT22;2730;51.512;7.504;2024-01-07T00:21:34;2.00;1.00
5415;DHT22;2730;51.512;7.504;2024-01-07T00:24:01;1.90;1.00
5415;DHT22;2730;51.512;7.504;2024-01-07T00:26:28;2.00;1.00
5415;DHT22;2730;51.512;7.504;2024-01-07T00:28:55;1.90;1.00
5415;DHT22;2730;51.512;7.504;2024-01-07T00:31:22;1.90;1.00
5415;DHT22;2730;51.512;7.504;2024-01-07T00:33:48;1.90;1.00
5415;DHT22;2730;51.512;7.504;2024-01-07T00:36:15;1.90;1.00
5415;DHT22;2730;51.512;7.504;2024-01-07T00:38:45;1.90;1.00
5415;DHT22;2730;51.512;7.504;2024-01-07T00:41:12;1.90;1.00
5415;DHT22;2730;51.512;7.504;2024-01-07T00:43:40;1.90;1.00
5415;DHT22;2730;51.512;7.504;2024-01-07T00:46:07;2.00;1.00
5415;DHT22;2730;51.512;7.504;2024-01-07T00:48:34;2.00;1.00
5415;DHT22;2730;51.512;7.504;2024-01-07T00:51:01;2.10;1.00
5415;DHT22;2730;51.512;7.504;2024-01-07T00:53:28;2.10;1.00
5415;DHT22;2730;51.512;7.504;2024-01-07T00:55:57;2.10;1.00
5415;DHT22;2730;51.512;7.504;2024-01-07T00:58:23;2.10;1.00
5415;DHT22;2730;51.512;7.504;2024-01-07T01:00:50;2.10;1.00
5415;DHT22;2730;51.512;7.504;2024-01-07T01:03:25;2.10;1.00
5415;DHT22;2730;51.512;7.504;2024-01-07T01:05:52;2.20;1.00
5415;DHT22;2730;51.512;7.504;2024-01-07T01:08:20;2.20;1.00
5415;DHT22;2730;51.512;7.504;2024-01-07T01:10:47;2.20;1.00
5415;DHT22;2730;51.512;7.504;2024-01-07T01:13:15;2.00;1.00
5415;DHT22;2730;51.512;7.504;2024-01-07T01:15:42;2.00;1.00
5415;DHT22;2730;51.512;7.504;2024-01-07T01:18:08;1.90;1.00
5415;DHT22;2730;51.512;7.504;2024-01-07T01:20:35;1.90;1.00
5415;DHT22;2730;51.512;7.504;2024-01-07T01:23:02;2.00;1.00
5415;DHT22;2730;51.512;7.504;2024-01-07T01:25:29;1.80;1.00
5415;DHT22;2730;51.512;7.504;2024-01-07T01:27:56;1.80;1.00
5415;DHT22;2730;51.512;7.504;2024-01-07T01:30:24;1.80;1.00
5415;DHT22;2730;51.512;7.504;2024-01-07T01:32:54;1.70;1.00
5415;DHT22;2730;51.512;7.504;2024-01-07T01:35:21;1.70;1.00
5415;DHT22;2730;51.512;7.504;2024-01-07T01:37:49;1.60;1.00
5415;DHT22;2730;51.512;7.504;2024-01-07T01:40:19;1.60;1.00
5415;DHT22;2730;51.512;7.504;2024-01-07T01:42:47;1.60;1.00
5415;DHT22;2730;51.512;7.504;2024-01-07T01:45:14;1.50;1.00
5415;DHT22;2730;51.512;7.504;2024-01-07T01:47:43;1.50;1.00
5415;DHT22;2730;51.512;7.504;2024-01-07T01:50:11;1.60;1.00
5415;DHT22;2730;51.512;7.504;2024-01-07T01:52:38;1.50;1.00
5415;DHT22;2730;51.512;7.504;2024-01-07T01:55:05;1.50;1.00
5415;DHT22;2730;51.512;7.504;2024-01-07T01:57:33;1.60;1.00
5415;DHT22;2730;51.512;7.504;2024-01-07T02:00:01;1.60;1.00
5415;DHT22;2730;51.512;7.504;2024-01-07T02:02:31;1.60;1.00
5415;DHT22;2730;51.512;7.504;2024-01-07T02:05:01;1.60;1.00
5415;DHT22;2730;51.512;7.504;2024-01-07T02:07:29;1.50;1.00
5415;DHT22;2730;51.512;7.504;2024-01-07T02:09:56;1.40;1.00
5415;DHT22;2730;51.512;7.504;2024-01-07T02:12:23;1.40;1.00
5415;DHT22;2730;51.512;7.504;2024-01-07T02:14:50;1.40;1.00
5415;DHT22;2730;51.512;7.504;2024-01-07T02:17:18;1.40;1.00
5415;DHT22;2730;51.512;7.504;2024-01-07T02:19:46;1.50;1.00
5415;DHT22;2730;51.512;7.504;2024-01-07T02:22:14;1.50;1.00
5415;DHT22;2730;51.512;7.504;2024-01-07T02:24:42;1.50;1.00
5415;DHT22;2730;51.512;7.504;2024-01-07T02:27:09;1.50;1.00
5415;DHT22;2730;51.512;7.504;2024-01-07T02:29:36;1.50;1.00
5415;DHT22;2730;51.512;7.504;2024-01-07T02:32:03;1.50;1.00
5415;DHT22;2730;51.512;7.504;2024-01-07T02:34:32;1.50;1.00
5415;DHT22;2730;51.512;7.504;2024-01-07T02:36:59;1.40;1.00
5415;DHT22;2730;51.512;7.504;2024-01-07T02:39:26;1.50;1.00
5415;DHT22;2730;51.512;7.504;2024-01-07T02:41:54;1.50;1.00
5415;DHT22;2730;51.512;7.504;2024-01-07T02:44:21;1.50;1.00
5415;DHT22;2730;51.512;7.504;2024-01-07T02:46:48;1.60;1.00
5415;DHT22;2730;51.512;7.504;2024-01-07T02:49:15;1.60;1.00
5415;DHT22;2730;51.512;7.504;2024-01-07T02:51:42;1.60;1.00
5415;DHT22;2730;51.512;7.504;2024-01-07T02:54:10;1.60;1.00
5415;DHT22;2730;51.512;7.504;2024-01-07T02:56:37;1.50;1.00
5415;DHT22;2730;51.512;7.504;2024-01-07T02:59:06;1.40;1.00
5415;DHT22;2730;51.512;7.504;2024-01-07T03:01:33;1.40;1.00
5415;DHT22;2730;51.512;7.504;2024-01-07T03:04:05;1.30;1.00
5415;DHT22;2730;51.512;7.504;2024-01-07T03:06:32;1.40;1.00
5415;DHT22;2730;51.512;7.504;2024-01-07T03:08:58;1.30;1.00
5415;DHT22;2730;51.512;7.504;2024-01-07T03:11:25;1.40;1.00
5415;DHT22;2730;51.512;7.504;2024-01-07T03:13:52;1.30;1.00
5415;DHT22;2730;51.512;7.504;2024-01-07T03:16:22;1.30;1.00
5415;DHT22;2730;51.512;7.504;2024-01-07T03:18:49;1.40;1.00
5415;DHT22;2730;51.512;7.504;2024-01-07T03:21:17;1.50;1.00
5415;DHT22;2730;51.512;7.504;2024-01-07T03:23:45;1.40;1.00
5415;DHT22;2730;51.512;7.504;2024-01-07T03:26:12;1.30;1.00
5415;DHT22;2730;51.512;7.504;2024-01-07T03:28:39;1.30;1.00
5415;DHT22;2730;51.512;7.504;2024-01-07T03:31:08;1.30;1.00
5415;DHT22;2730;51.512;7.504;2024-01-07T03:33:37;1.30;1.00
5415;DHT22;2730;51.512;7.504;2024-01-07T03:36:06;1.20;1.00
5415;DHT22;2730;51.512;7.504;2024-01-07T03:38:34;1.20;1.00
5415;DHT22;2730;51.512;7.504;2024-01-07T03:41:01;1.20;1.00
5415;DHT22;2730;51.512;7.504;2024-01-07T03:43:28;1.20;1.00
5415;DHT22;2730;51.512;7.504;2024-01-07T03:45:56;1.10;1.00
5415;DHT22;2730;51.512;7.504;2024-01-07T03:48:22;1.10;1.00
5415;DHT22;2730;51.512;7.504;2024-01-07T03:50:51;1.00;1.00
5415;DHT22;2730;51.512;7.504;2024-01-07T03:53:18;1.00;1.00
5415;DHT22;2730;51.512;7.504;2024-01-07T03:55:45;1.00;1.00
5415;DHT22;2730;51.512;7.504;2024-01-07T03:58:11;1.00;1.00
5415;DHT22;2730;51.512;7.504;2024-01-07T04:00:41;1.10;1.00
5415;DHT22;2730;51.512;7.504;2024-01-07T04:03:07;1.00;1.00
5415;DHT22;2730;51.512;7.504;2024-01-07T04:05:34;1.10;1.00
5415;DHT22;2730;51.512;7.504;2024-01-07T04:08:03;1.10;1.00
5415;DHT22;2730;51.512;7.504;2024-01-07T04:10:30;1.00;1.00
5415;DHT22;2730;51.512;7.504;2024-01-07T04:12:59;1.10;1.00
5415;DHT22;2730;51.512;7.504;2024-01-07T04:15:26;1.10;1.00
5415;DHT22;2730;51.512;7.504;2024-01-07T04:17:53;1.10;1.00
5415;DHT22;2730;51.512;7.504;2024-01-07T04:20:20;1.00;1.00
5415;DHT22;2730;51.512;7.504;2024-01-07T04:22:48;1.00;1.00
5415;DHT22;2730;51.512;7.504;2024-01-07T04:25:16;1.00;1.00
5415;DHT22;2730;51.512;7.504;2024-01-07T04:27:43;1.00;1.00
5415;DHT22;2730;51.512;7.504;2024-01-07T04:30:10;1.00;1.00
5415;DHT22;2730;51.512;7.504;2024-01-07T04:32:36;0.90;1.00
5415;DHT22;2730;51.512;7.504;2024-01-07T04:35:04;1.00;1.00
5415;DHT22;2730;51.512;7.504;2024-01-07T04:37:32;0.90;1.00
5415;DHT22;2730;51.512;7.504;2024-01-07T04:40:01;0.90;1.00
5415;DHT22;2730;51.512;7.504;2024-01-07T04:42:29;0.90;1.00
5415;DHT22;2730;51.512;7.504;2024-01-07T04:44:56;0.80;1.00
5415;DHT22;2730;51.512;7.504;2024-01-07T04:47:26;0.90;1.00
5415;DHT22;2730;51.512;7.504;2024-01-07T04:49:54;0.80;1.00
5415;DHT22;2730;51.512;7.504;2024-01-07T04:52:21;0.90;1.00
5415;DHT22;2730;51.512;7.504;2024-01-07T04:54:49;0.90;1.00
5415;DHT22;2730;51.512;7.504;2024-01-07T04:57:16;0.90;1.00
5415;DHT22;2730;51.512;7.504;2024-01-07T04:59:45;0.90;1.00
5415;DHT22;2730;51.512;7.504;2024-01-07T05:02:12;0.90;1.00
5415;DHT22;2730;51.512;7.504;2024-01-07T05:04:39;0.80;1.00
5415;DHT22;2730;51.512;7.504;2024-01-07T05:07:06;0.80;1.00
5415;DHT22;2730;51.512;7.504;2024-01-07T05:09:34;0.80;1.00
5415;DHT22;2730;51.512;7.504;2024-01-07T05:12:01;0.90;1.00
5415;DHT22;2730;51.512;7.504;2024-01-07T05:14:28;0.90;1.00
5415;DHT22;2730;51.512;7.504;2024-01-07T05:16:56;0.90;1.00
5415;DHT22;2730;51.512;7.504;2024-01-07T05:19:23;0.90;1.00
5415;DHT22;2730;51.512;7.504;2024-01-07T05:21:50;0.90;1.00
5415;DHT22;2730;51.512;7.504;2024-01-07T05:24:17;0.90;1.00
5415;DHT22;2730;51.512;7.504;2024-01-07T05:26:45;0.90;1.00
5415;DHT22;2730;51.512;7.504;2024-01-07T05:29:15;0.90;1.00
5415;DHT22;2730;51.512;7.504;2024-01-07T05:31:42;0.80;1.00
5415;DHT22;2730;51.512;7.504;2024-01-07T05:34:12;0.90;1.00
5415;DHT22;2730;51.512;7.504;2024-01-07T05:36:38;0.90;1.00
5415;DHT22;2730;51.512;7.504;2024-01-07T05:39:05;0.90;1.00
5415;DHT22;2730;51.512;7.504;2024-01-07T05:41:32;0.90;1.00
5415;DHT22;2730;51.512;7.504;2024-01-07T05:43:59;0.90;1.00
5415;DHT22;2730;51.512;7.504;2024-01-07T05:46:26;0.90;1.00
5415;DHT22;2730;51.512;7.504;2024-01-07T05:48:53;0.80;1.00
5415;DHT22;2730;51.512;7.504;2024-01-07T05:51:21;0.80;1.00
5415;DHT22;2730;51.512;7.504;2024-01-07T05:53:48;0.90;1.00
5415;DHT22;2730;51.512;7.504;2024-01-07T05:56:14;0.90;1.00
5415;DHT22;2730;51.512;7.504;2024-01-07T05:58:41;1.00;1.00
5415;DHT22;2730;51.512;7.504;2024-01-07T06:01:08;0.90;1.00
5415;DHT22;2730;51.512;7.504;2024-01-07T06:03:35;0.90;1.00
5415;DHT22;2730;51.512;7.504;2024-01-07T06:06:02;0.90;1.00
5415;DHT22;2730;51.512;7.504;2024-01-07T06:08:30;0.90;1.00
5415;DHT22;2730;51.512;7.504;2024-01-07T06:10:59;0.80;1.00
5415;DHT22;2730;51.512;7.504;2024-01-07T06:13:25;0.90;1.00
5415;DHT22;2730;51.512;7.504;2024-01-07T06:15:52;0.80;1.00
5415;DHT22;2730;51.512;7.504;2024-01-07T06:18:21;0.80;1.00
5415;DHT22;2730;51.512;7.504;2024-01-07T06:20:48;0.90;1.00
5415;DHT22;2730;51.512;7.504;2024-01-07T06:23:17;0.90;1.00
5415;DHT22;2730;51.512;7.504;2024-01-07T06:25:45;0.90;1.00
5415;DHT22;2730;51.512;7.504;2024-01-07T06:28:12;0.90;1.00
5415;DHT22;2730;51.512;7.504;2024-01-07T06:30:40;0.90;1.00
5415;DHT22;2730;51.512;7.504;2024-01-07T06:33:06;0.90;1.00
5415;DHT22;2730;51.512;7.504;2024-01-07T06:35:33;0.90;1.00
5415;DHT22;2730;51.512;7.504;2024-01-07T06:38:00;0.90;1.00
5415;DHT22;2730;51.512;7.504;2024-01-07T06:40:27;0.90;1.00
5415;DHT22;2730;51.512;7.504;2024-01-07T06:42:55;0.70;1.00
5415;DHT22;2730;51.512;7.504;2024-01-07T06:45:23;0.70;1.00
5415;DHT22;2730;51.512;7.504;2024-01-07T06:47:50;0.70;1.00
5415;DHT22;2730;51.512;7.504;2024-01-07T06:50:16;0.70;1.00
5415;DHT22;2730;51.512;7.504;2024-01-07T06:52:45;0.70;1.00
5415;DHT22;2730;51.512;7.504;2024-01-07T06:55:12;0.80;1.00
5415;DHT22;2730;51.512;7.504;2024-01-07T06:57:38;0.80;1.00
5415;DHT22;2730;51.512;7.504;2024-01-07T07:00:08;0.80;1.00
5415;DHT22;2730;51.512;7.504;2024-01-07T07:02:36;0.80;1.00
5415;DHT22;2730;51.512;7.504;2024-01-07T07:05:03;0.80;99.90
5415;DHT22;2730;51.512;7.504;2024-01-07T07:07:30;0.80;99.90
5415;DHT22;2730;51.512;7.504;2024-01-07T07:09:57;0.80;99.90
5415;DHT22;2730;51.512;7.504;2024-01-07T07:12:26;0.80;1.00
5415;DHT22;2730;51.512;7.504;2024-01-07T07:14:53;0.80;99.90
5415;DHT22;2730;51.512;7.504;2024-01-07T07:17:23;0.70;99.90
5415;DHT22;2730;51.512;7.504;2024-01-07T07:19:49;0.80;99.90
5415;DHT22;2730;51.512;7.504;2024-01-07T07:22:16;0.80;99.90
5415;DHT22;2730;51.512;7.504;2024-01-07T07:24:45;0.80;99.90
5415;DHT22;2730;51.512;7.504;2024-01-07T07:27:13;0.80;99.90
5415;DHT22;2730;51.512;7.504;2024-01-07T07:29:42;0.70;1.00
5415;DHT22;2730;51.512;7.504;2024-01-07T07:32:09;0.60;1.00
5415;DHT22;2730;51.512;7.504;2024-01-07T07:34:41;0.50;1.00
5415;DHT22;2730;51.512;7.504;2024-01-07T07:37:10;0.50;1.00
5415;DHT22;2730;51.512;7.504;2024-01-07T07:39:37;0.50;1.00
5415;DHT22;2730;51.512;7.504;2024-01-07T07:42:03;0.40;1.00
5415;DHT22;2730;51.512;7.504;2024-01-07T07:44:30;0.40;1.00
5415;DHT22;2730;51.512;7.504;2024-01-07T07:46:57;0.30;1.00
5415;DHT22;2730;51.512;7.504;2024-01-07T07:49:24;0.30;1.00
5415;DHT22;2730;51.512;7.504;2024-01-07T07:51:54;0.30;1.00
5415;DHT22;2730;51.512;7.504;2024-01-07T07:54:21;0.20;1.00
5415;DHT22;2730;51.512;7.504;2024-01-07T07:56:48;0.20;1.00
5415;DHT22;2730;51.512;7.504;2024-01-07T07:59:15;0.20;1.00
5415;DHT22;2730;51.512;7.504;2024-01-07T08:01:42;0.20;1.00
5415;DHT22;2730;51.512;7.504;2024-01-07T08:04:09;0.20;1.00
5415;DHT22;2730;51.512;7.504;2024-01-07T08:06:36;0.20;1.00
5415;DHT22;2730;51.512;7.504;2024-01-07T08:09:04;0.10;1.00
5415;DHT22;2730;51.512;7.504;2024-01-07T08:11:32;0.20;1.00
5415;DHT22;2730;51.512;7.504;2024-01-07T08:13:58;0.10;1.00
5415;DHT22;2730;51.512;7.504;2024-01-07T08:16:27;0.00;1.00
5415;DHT22;2730;51.512;7.504;2024-01-07T08:18:55;0.00;1.00
5415;DHT22;2730;51.512;7.504;2024-01-07T08:21:22;0.00;1.00
5415;DHT22;2730;51.512;7.504;2024-01-07T08:23:50;0.00;1.00
5415;DHT22;2730;51.512;7.504;2024-01-07T08:26:19;0.00;1.00
5415;DHT22;2730;51.512;7.504;2024-01-07T08:28:47;0.10;1.00
5415;DHT22;2730;51.512;7.504;2024-01-07T08:31:14;0.00;1.00
5415;DHT22;2730;51.512;7.504;2024-01-07T08:33:41;0.10;1.00
5415;DHT22;2730;51.512;7.504;2024-01-07T08:36:08;0.10;1.00
5415;DHT22;2730;51.512;7.504;2024-01-07T08:38:34;0.20;1.00
5415;DHT22;2730;51.512;7.504;2024-01-07T08:41:01;0.20;1.00
5415;DHT22;2730;51.512;7.504;2024-01-07T08:43:29;0.20;1.00
5415;DHT22;2730;51.512;7.504;2024-01-07T08:45:56;0.20;1.00
5415;DHT22;2730;51.512;7.504;2024-01-07T08:48:23;0.10;99.90
5415;DHT22;2730;51.512;7.504;2024-01-07T08:50:50;0.20;99.90
5415;DHT22;2730;51.512;7.504;2024-01-07T08:53:18;0.20;99.90
5415;DHT22;2730;51.512;7.504;2024-01-07T08:55:45;0.20;99.90
5415;DHT22;2730;51.512;7.504;2024-01-07T08:58:12;0.30;99.90
5415;DHT22;2730;51.512;7.504;2024-01-07T09:00:44;0.30;99.90
5415;DHT22;2730;51.512;7.504;2024-01-07T09:03:12;0.20;99.90
5415;DHT22;2730;51.512;7.504;2024-01-07T09:05:42;0.20;99.90
5415;DHT22;2730;51.512;7.504;2024-01-07T09:08:09;0.20;99.90
5415;DHT22;2730;51.512;7.504;2024-01-07T09:10:36;0.20;99.90
5415;DHT22;2730;51.512;7.504;2024-01-07T09:13:03;0.20;99.90
5415;DHT22;2730;51.512;7.504;2024-01-07T09:15:30;0.10;99.90
5415;DHT22;2730;51.512;7.504;2024-01-07T09:17:58;0.10;99.90
5415;DHT22;2730;51.512;7.504;2024-01-07T09:20:28;0.10;99.90
5415;DHT22;2730;51.512;7.504;2024-01-07T09:22:56;0.10;99.90
5415;DHT22;2730;51.512;7.504;2024-01-07T09:25:23;0.10;99.90
5415;DHT22;2730;51.512;7.504;2024-01-07T09:27:51;0.20;99.90
5415;DHT22;2730;51.512;7.504;2024-01-07T09:30:17;0.10;99.90
5415;DHT22;2730;51.512;7.504;2024-01-07T09:32:44;0.20;99.90
5415;DHT22;2730;51.512;7.504;2024-01-07T09:35:13;0.20;99.90
5415;DHT22;2730;51.512;7.504;2024-01-07T09:37:40;0.20;99.90
5415;DHT22;2730;51.512;7.504;2024-01-07T09:40:07;0.30;99.90
5415;DHT22;2730;51.512;7.504;2024-01-07T09:42:34;0.40;99.90
5415;DHT22;2730;51.512;7.504;2024-01-07T09:45:03;0.40;99.90
5415;DHT22;2730;51.512;7.504;2024-01-07T09:47:30;0.40;99.90
5415;DHT22;2730;51.512;7.504;2024-01-07T09:49:57;0.30;1.00
5415;DHT22;2730;51.512;7.504;2024-01-07T09:52:25;0.20;1.00
5415;DHT22;2730;51.512;7.504;2024-01-07T09:54:58;0.30;1.00
5415;DHT22;2730;51.512;7.504;2024-01-07T09:57:25;0.20;1.00
5415;DHT22;2730;51.512;7.504;2024-01-07T09:59:52;0.20;1.00
5415;DHT22;2730;51.512;7.504;2024-01-07T10:02:22;0.20;1.00
5415;DHT22;2730;51.512;7.504;2024-01-07T10:04:49;0.20;1.00
5415;DHT22;2730;51.512;7.504;2024-01-07T10:07:16;0.20;1.00
5415;DHT22;2730;51.512;7.504;2024-01-07T10:09:44;0.30;1.00
5415;DHT22;2730;51.512;7.504;2024-01-07T10:12:11;0.40;1.00
5415;DHT22;2730;51.512;7.504;2024-01-07T10:14:39;0.50;1.00
5415;DHT22;2730;51.512;7.504;2024-01-07T10:17:15;0.50;1.00
5415;DHT22;2730;51.512;7.504;2024-01-07T10:19:43;0.30;99.90
5415;DHT22;2730;51.512;7.504;2024-01-07T10:22:12;0.30;99.90
5415;DHT22;2730;51.512;7.504;2024-01-07T10:24:40;0.30;99.90
5415;DHT22;2730;51.512;7.504;2024-01-07T10:27:10;0.30;99.90
5415;DHT22;2730;51.512;7.504;2024-01-07T10:29:38;0.40;99.90
5415;DHT22;2730;51.512;7.504;2024-01-07T10:32:05;0.30;99.90
5415;DHT22;2730;51.512;7.504;2024-01-07T10:34:34;0.30;99.90
5415;DHT22;2730;51.512;7.504;2024-01-07T10:37:02;0.40;99.90
5415;DHT22;2730;51.512;7.504;2024-01-07T10:39:30;0.40;99.90
5415;DHT22;2730;51.512;7.504;2024-01-07T10:41:57;0.40;99.90
5415;DHT22;2730;51.512;7.504;2024-01-07T10:44:29;0.40;1.00
5415;DHT22;2730;51.512;7.504;2024-01-07T10:46:57;0.30;99.90
5415;DHT22;2730;51.512;7.504;2024-01-07T10:49:25;0.20;99.90
5415;DHT22;2730;51.512;7.504;2024-01-07T10:52:02;0.10;99.90
5415;DHT22;2730;51.512;7.504;2024-01-07T10:54:30;0.10;99.90
5415;DHT22;2730;51.512;7.504;2024-01-07T10:57:00;0.10;1.00
5415;DHT22;2730;51.512;7.504;2024-01-07T10:59:29;0.20;1.00
5415;DHT22;2730;51.512;7.504;2024-01-07T11:01:58;0.10;1.00
5415;DHT22;2730;51.512;7.504;2024-01-07T11:04:31;0.10;62.20
5415;DHT22;2730;51.512;7.504;2024-01-07T11:07:09;0.00;99.90
5415;DHT22;2730;51.512;7.504;2024-01-07T11:09:43;0.00;1.00
5415;DHT22;2730;51.512;7.504;2024-01-07T11:12:11;-0.10;1.00
5415;DHT22;2730;51.512;7.504;2024-01-07T11:14:42;0.00;99.90
5415;DHT22;2730;51.512;7.504;2024-01-07T11:17:10;0.10;1.00
5415;DHT22;2730;51.512;7.504;2024-01-07T11:19:39;0.10;1.00
5415;DHT22;2730;51.512;7.504;2024-01-07T11:22:23;0.00;1.00
5415;DHT22;2730;51.512;7.504;2024-01-07T11:24:53;-0.10;77.70
5415;DHT22;2730;51.512;7.504;2024-01-07T11:27:21;0.10;99.90
5415;DHT22;2730;51.512;7.504;2024-01-07T11:29:57;0.10;86.70
5415;DHT22;2730;51.512;7.504;2024-01-07T11:32:29;0.10;1.00
5415;DHT22;2730;51.512;7.504;2024-01-07T11:34:56;0.00;99.90
5415;DHT22;2730;51.512;7.504;2024-01-07T11:37:25;-0.20;99.90
5415;DHT22;2730;51.512;7.504;2024-01-07T11:39:55;-0.10;1.00
5415;DHT22;2730;51.512;7.504;2024-01-07T11:42:24;-0.20;1.00
5415;DHT22;2730;51.512;7.504;2024-01-07T11:44:54;-0.20;1.00
5415;DHT22;2730;51.512;7.504;2024-01-07T11:47:25;-0.20;1.00
5415;DHT22;2730;51.512;7.504;2024-01-07T11:49:53;-0.20;99.90
5415;DHT22;2730;51.512;7.504;2024-01-07T11:52:20;-0.20;1.00
5415;DHT22;2730;51.512;7.504;2024-01-07T11:54:48;-0.20;1.00
5415;DHT22;2730;51.512;7.504;2024-01-07T11:57:16;-0.30;99.90
5415;DHT22;2730;51.512;7.504;2024-01-07T11:59:43;-0.20;99.90
5415;DHT22;2730;51.512;7.504;2024-01-07T12:02:11;-0.30;73.80
5415;DHT22;2730;51.512;7.504;2024-01-07T12:04:41;-0.30;1.00
5415;DHT22;2730;51.512;7.504;2024-01-07T12:07:08;-0.20;1.00
5415;DHT22;2730;51.512;7.504;2024-01-07T12:09:36;-0.30;1.00
5415;DHT22;2730;51.512;7.504;2024-01-07T12:12:03;-0.40;1.00
5415;DHT22;2730;51.512;7.504;2024-01-07T12:14:32;-0.30;1.00
5415;DHT22;2730;51.512;7.504;2024-01-07T12:16:59;-0.30;1.00
5415;DHT22;2730;51.512;7.504;2024-01-07T12:19:26;-0.30;1.00
5415;DHT22;2730;51.512;7.504;2024-01-07T12:22:02;-0.30;1.00
5415;DHT22;2730;51.512;7.504;2024-01-07T12:24:32;-0.30;99.90
5415;DHT22;2730;51.512;7.504;2024-01-07T12:27:04;-0.20;1.00
5415;DHT22;2730;51.512;7.504;2024-01-07T12:29:32;-0.20;99.90
5415;DHT22;2730;51.512;7.504;2024-01-07T12:31:59;-0.30;99.90
5415;DHT22;2730;51.512;7.504;2024-01-07T12:34:28;-0.20;99.90
5415;DHT22;2730;51.512;7.504;2024-01-07T12:36:55;-0.30;51.90
5415;DHT22;2730;51.512;7.504;2024-01-07T12:39:23;-0.30;1.00
5415;DHT22;2730;51.512;7.504;2024-01-07T12:41:49;-0.30;1.00
5415;DHT22;2730;51.512;7.504;2024-01-07T12:44:16;-0.20;1.00
5415;DHT22;2730;51.512;7.504;2024-01-07T12:46:43;-0.30;1.00
5415;DHT22;2730;51.512;7.504;2024-01-07T12:49:10;-0.30;1.00
5415;DHT22;2730;51.512;7.504;2024-01-07T12:51:37;-0.30;1.00
5415;DHT22;2730;51.512;7.504;2024-01-07T12:54:04;-0.30;1.00
5415;DHT22;2730;51.512;7.504;2024-01-07T12:56:32;-0.30;1.00
5415;DHT22;2730;51.512;7.504;2024-01-07T12:58:59;-0.20;1.00
5415;DHT22;2730;51.512;7.504;2024-01-07T13:01:26;-0.20;1.00
5415;DHT22;2730;51.512;7.504;2024-01-07T13:03:53;-0.20;1.00
5415;DHT22;2730;51.512;7.504;2024-01-07T13:06:22;-0.20;1.00
5415;DHT22;2730;51.512;7.504;2024-01-07T13:08:49;-0.20;1.00
5415;DHT22;2730;51.512;7.504;2024-01-07T13:11:16;-0.30;1.00
5415;DHT22;2730;51.512;7.504;2024-01-07T13:13:44;-0.20;1.00
5415;DHT22;2730;51.512;7.504;2024-01-07T13:16:11;-0.20;1.00
5415;DHT22;2730;51.512;7.504;2024-01-07T13:18:37;-0.20;1.00
5415;DHT22;2730;51.512;7.504;2024-01-07T13:21:04;-0.30;1.00
5415;DHT22;2730;51.512;7.504;2024-01-07T13:23:33;-0.20;1.00
5415;DHT22;2730;51.512;7.504;2024-01-07T13:26:00;-0.30;99.90
5415;DHT22;2730;51.512;7.504;2024-01-07T13:28:32;-0.20;1.00
5415;DHT22;2730;51.512;7.504;2024-01-07T13:31:00;-0.20;99.90
5415;DHT22;2730;51.512;7.504;2024-01-07T13:33:27;-0.20;99.90
5415;DHT22;2730;51.512;7.504;2024-01-07T13:35:53;-0.10;1.00
5415;DHT22;2730;51.512;7.504;2024-01-07T13:38:20;-0.10;1.00
5415;DHT22;2730;51.512;7.504;2024-01-07T13:40:47;-0.10;1.00
5415;DHT22;2730;51.512;7.504;2024-01-07T13:43:14;-0.10;99.90
5415;DHT22;2730;51.512;7.504;2024-01-07T13:45:41;-0.20;99.90
5415;DHT22;2730;51.512;7.504;2024-01-07T13:48:09;-0.20;99.90
5415;DHT22;2730;51.512;7.504;2024-01-07T13:50:36;-0.10;99.90
5415;DHT22;2730;51.512;7.504;2024-01-07T13:53:03;-0.20;99.90
5415;DHT22;2730;51.512;7.504;2024-01-07T13:55:30;-0.10;99.90
5415;DHT22;2730;51.512;7.504;2024-01-07T13:57:56;-0.10;99.90
5415;DHT22;2730;51.512;7.504;2024-01-07T14:00:24;-0.10;99.90
5415;DHT22;2730;51.512;7.504;2024-01-07T14:02:51;-0.10;99.90
5415;DHT22;2730;51.512;7.504;2024-01-07T14:05:19;-0.10;99.90
5415;DHT22;2730;51.512;7.504;2024-01-07T14:07:46;-0.10;99.90
5415;DHT22;2730;51.512;7.504;2024-01-07T14:10:13;0.00;99.90
5415;DHT22;2730;51.512;7.504;2024-01-07T14:12:39;-0.10;99.90
5415;DHT22;2730;51.512;7.504;2024-01-07T14:15:07;-0.20;99.90
5415;DHT22;2730;51.512;7.504;2024-01-07T14:17:34;-0.20;99.90
5415;DHT22;2730;51.512;7.504;2024-01-07T14:20:01;-0.10;99.90
5415;DHT22;2730;51.512;7.504;2024-01-07T14:22:30;-0.10;99.90
5415;DHT22;2730;51.512;7.504;2024-01-07T14:24:58;0.00;1.00
5415;DHT22;2730;51.512;7.504;2024-01-07T14:27:26;-0.10;99.90
5415;DHT22;2730;51.512;7.504;2024-01-07T14:29:53;-0.10;1.00
5415;DHT22;2730;51.512;7.504;2024-01-07T14:32:21;-0.10;99.90
5415;DHT22;2730;51.512;7.504;2024-01-07T14:34:49;-0.10;99.90
5415;DHT22;2730;51.512;7.504;2024-01-07T14:37:17;-0.10;99.90
5415;DHT22;2730;51.512;7.504;2024-01-07T14:39:46;-0.10;99.90
5415;DHT22;2730;51.512;7.504;2024-01-07T14:42:13;-0.10;99.90
5415;DHT22;2730;51.512;7.504;2024-01-07T14:44:40;-0.10;99.90
5415;DHT22;2730;51.512;7.504;2024-01-07T14:47:07;-0.10;99.90
5415;DHT22;2730;51.512;7.504;2024-01-07T14:49:36;-0.10;99.90
5415;DHT22;2730;51.512;7.504;2024-01-07T14:52:03;-0.10;99.90
5415;DHT22;2730;51.512;7.504;2024-01-07T14:54:31;-0.10;99.90
5415;DHT22;2730;51.512;7.504;2024-01-07T14:57:02;-0.20;99.90
5415;DHT22;2730;51.512;7.504;2024-01-07T14:59:29;-0.10;99.90
5415;DHT22;2730;51.512;7.504;2024-01-07T15:01:56;-0.10;99.90
5415;DHT22;2730;51.512;7.504;2024-01-07T15:04:22;-0.20;99.90
5415;DHT22;2730;51.512;7.504;2024-01-07T15:06:49;-0.10;99.90
5415;DHT22;2730;51.512;7.504;2024-01-07T15:09:16;-0.10;99.90
5415;DHT22;2730;51.512;7.504;2024-01-07T15:11:44;-0.10;99.90
5415;DHT22;2730;51.512;7.504;2024-01-07T15:14:15;-0.10;99.30
5415;DHT22;2730;51.512;7.504;2024-01-07T15:16:42;-0.20;99.90
5415;DHT22;2730;51.512;7.504;2024-01-07T15:19:09;-0.10;99.90
5415;DHT22;2730;51.512;7.504;2024-01-07T15:21:36;-0.10;99.90
5415;DHT22;2730;51.512;7.504;2024-01-07T15:24:04;-0.10;99.90
5415;DHT22;2730;51.512;7.504;2024-01-07T15:26:31;-0.10;99.90
5415;DHT22;2730;51.512;7.504;2024-01-07T15:29:00;-0.10;99.90
5415;DHT22;2730;51.512;7.504;2024-01-07T15:31:30;-0.10;99.90
5415;DHT22;2730;51.512;7.504;2024-01-07T15:33:57;-0.10;99.90
5415;DHT22;2730;51.512;7.504;2024-01-07T15:36:24;-0.10;99.90
5415;DHT22;2730;51.512;7.504;2024-01-07T15:38:50;-0.10;99.90
5415;DHT22;2730;51.512;7.504;2024-01-07T15:41:17;-0.10;99.90
5415;DHT22;2730;51.512;7.504;2024-01-07T15:43:44;-0.10;99.90
5415;DHT22;2730;51.512;7.504;2024-01-07T15:46:11;-0.10;99.90
5415;DHT22;2730;51.512;7.504;2024-01-07T15:48:41;0.00;99.90
5415;DHT22;2730;51.512;7.504;2024-01-07T15:51:07;-0.10;99.90
5415;DHT22;2730;51.512;7.504;2024-01-07T15:53:34;-0.10;99.90
5415;DHT22;2730;51.512;7.504;2024-01-07T15:56:03;0.00;99.90
5415;DHT22;2730;51.512;7.504;2024-01-07T15:58:31;0.00;99.90
5415;DHT22;2730;51.512;7.504;2024-01-07T16:01:00;-0.10;99.90
5415;DHT22;2730;51.512;7.504;2024-01-07T16:03:28;0.00;99.90
5415;DHT22;2730;51.512;7.504;2024-01-07T16:05:56;0.00;1.00
5415;DHT22;2730;51.512;7.504;2024-01-07T16:08:24;-0.10;1.00
5415;DHT22;2730;51.512;7.504;2024-01-07T16:10:53;-0.10;1.00
5415;DHT22;2730;51.512;7.504;2024-01-07T16:13:20;0.00;1.00
5415;DHT22;2730;51.512;7.504;2024-01-07T16:15:47;-0.10;1.00
5415;DHT22;2730;51.512;7.504;2024-01-07T16:18:14;0.00;1.00
5415;DHT22;2730;51.512;7.504;2024-01-07T16:20:41;0.10;1.00
5415;DHT22;2730;51.512;7.504;2024-01-07T16:23:10;0.00;1.00
5415;DHT22;2730;51.512;7.504;2024-01-07T16:25:37;0.00;1.00
5415;DHT22;2730;51.512;7.504;2024-01-07T16:28:05;0.00;1.00